createdAt,value
2023-03-06T00:03:38.942Z,5.21
2023-03-06T00:08:40.482Z,5.19
2023-03-06T00:13:42.004Z,5.19
2023-03-06T00:18:44.077Z,5.19
2023-03-06T00:23:45.606Z,5.17
2023-03-06T00:28:47.103Z,5.17
2023-03-06T00:33:49.478Z,5.20
2023-03-06T00:38:51.916Z,5.21
2023-03-06T00:43:53.492Z,5.21
2023-03-06T00:48:54.981Z,5.20
2023-03-06T00:53:56.467Z,5.19
2023-03-06T00:58:59.204Z,5.17
2023-03-06T01:04:00.683Z,5.16
2023-03-06T01:09:02.303Z,5.17
2023-03-06T01:14:04.046Z,5.17
2023-03-06T01:19:05.608Z,5.15
2023-03-06T01:24:08.474Z,5.14
2023-03-06T01:29:10.036Z,5.11
2023-03-06T01:34:11.608Z,5.07
2023-03-06T01:39:13.121Z,5.05
2023-03-06T01:44:14.624Z,5.04
2023-03-06T01:49:20.200Z,4.99
2023-03-06T01:54:44.589Z,4.94
2023-03-06T01:59:49.397Z,4.92
2023-03-06T02:04:51.258Z,4.93
2023-03-06T02:09:53.230Z,4.92
2023-03-06T02:14:54.907Z,4.92
2023-03-06T02:20:07.711Z,4.94
2023-03-06T02:25:30.952Z,4.93
2023-03-06T02:30:32.753Z,4.93
2023-03-06T02:35:38.587Z,4.91
2023-03-06T02:40:43.556Z,4.89
2023-03-06T02:45:48.705Z,4.85
2023-03-06T02:50:50.385Z,4.81
2023-03-06T02:55:52.273Z,4.81
2023-03-06T03:00:55.118Z,4.82
2023-03-06T03:05:56.862Z,4.81
2023-03-06T03:11:04.247Z,4.80
2023-03-06T03:16:15.478Z,4.79
2023-03-06T03:21:17.830Z,4.77
2023-03-06T03:26:21.476Z,4.78
2023-03-06T03:31:30.148Z,4.78
2023-03-06T03:36:31.819Z,4.77
2023-03-06T03:41:34.170Z,4.75
2023-03-06T03:46:38.009Z,4.78
2023-03-06T03:51:44.313Z,4.77
2023-03-06T03:56:46.181Z,4.80
2023-03-06T04:01:56.010Z,4.81
2023-03-06T04:06:58.889Z,4.82
2023-03-06T04:12:00.503Z,4.80
2023-03-06T04:17:02.292Z,4.81
2023-03-06T04:22:03.957Z,4.81
2023-03-06T04:27:09.138Z,4.83
2023-03-06T04:32:11.185Z,4.85
2023-03-06T04:37:20.649Z,4.86
2023-03-06T04:42:22.748Z,4.85
2023-03-06T04:47:24.263Z,4.88
2023-03-06T04:52:25.801Z,4.89
2023-03-06T04:57:27.337Z,4.88
2023-03-06T05:02:28.868Z,4.90
2023-03-06T05:07:30.658Z,4.90
2023-03-06T05:12:35.027Z,4.92
2023-03-06T05:17:37.151Z,4.94
2023-03-06T05:22:38.808Z,4.94
2023-03-06T05:27:40.582Z,4.94
2023-03-06T05:32:42.721Z,4.93
2023-03-06T05:37:44.413Z,4.93
2023-03-06T05:42:46.049Z,4.94
2023-03-06T05:47:47.731Z,4.92
2023-03-06T05:52:49.494Z,4.93
2023-03-06T05:57:51.827Z,4.94
2023-03-06T06:02:53.416Z,4.93
2023-03-06T06:07:55.008Z,4.93
2023-03-06T06:12:56.495Z,4.92
2023-03-06T06:17:58.136Z,4.95
2023-03-06T06:22:59.646Z,4.95
2023-03-06T06:28:01.282Z,4.95
2023-03-06T06:33:02.820Z,4.97
2023-03-06T06:38:04.330Z,4.98
2023-03-06T06:43:05.883Z,5.00
2023-03-06T06:48:07.472Z,4.99
2023-03-06T06:53:08.996Z,4.97
2023-03-06T06:58:10.512Z,4.95
2023-03-06T07:03:13.025Z,4.97
2023-03-06T07:08:14.560Z,4.94
2023-03-06T07:13:16.139Z,4.91
2023-03-06T07:18:17.685Z,4.86
2023-03-06T07:23:19.295Z,4.82
2023-03-06T07:28:21.419Z,4.83
2023-03-06T07:33:23.132Z,4.88
2023-03-06T07:38:24.651Z,4.90
2023-03-06T07:43:26.146Z,4.92
2023-03-06T07:48:34.612Z,4.92
2023-03-06T07:53:36.119Z,4.93
2023-03-06T07:58:39.847Z,4.99
2023-03-06T08:03:41.830Z,5.06
2023-03-06T08:08:45.140Z,5.03
2023-03-06T08:13:48.703Z,5.07
2023-03-06T08:18:50.351Z,5.08
2023-03-06T08:23:51.942Z,5.10
2023-03-06T08:28:55.574Z,5.12
2023-03-06T08:33:59.197Z,5.18
2023-03-06T08:39:01.298Z,5.25
2023-03-06T08:44:03.259Z,5.31
2023-03-06T08:49:04.937Z,5.34
2023-03-06T08:54:06.690Z,5.34
2023-03-06T08:59:09.413Z,5.33
2023-03-06T09:04:11.833Z,5.33
2023-03-06T09:09:13.896Z,5.31
2023-03-06T09:14:15.457Z,5.32
2023-03-06T09:19:16.990Z,5.31
2023-03-06T09:24:18.552Z,5.36
2023-03-06T09:29:20.100Z,5.36
2023-03-06T09:34:21.696Z,5.35
2023-03-06T09:39:24.002Z,5.34
2023-03-06T09:44:29.191Z,5.32
2023-03-06T09:49:45.901Z,5.36
2023-03-06T09:54:54.499Z,5.38
2023-03-06T10:00:02.061Z,5.43
2023-03-06T10:05:13.107Z,5.49
2023-03-06T10:10:24.620Z,5.53
2023-03-06T10:15:32.135Z,5.59
2023-03-06T10:20:45.271Z,5.71
2023-03-06T10:26:01.183Z,5.80
2023-03-06T10:31:26.564Z,5.90
2023-03-06T10:36:28.862Z,6.02
2023-03-06T10:41:32.643Z,6.17
2023-03-06T10:46:37.219Z,6.19
2023-03-06T10:51:38.756Z,6.26
2023-03-06T10:56:42.925Z,6.29
2023-03-06T11:01:49.050Z,6.35
2023-03-06T11:07:15.396Z,6.40
2023-03-06T11:12:23.020Z,6.49
2023-03-06T11:17:29.713Z,6.53
2023-03-06T11:22:31.564Z,6.59
2023-03-06T11:27:38.446Z,6.64
2023-03-06T11:32:50.327Z,6.69
2023-03-06T11:38:32.182Z,6.70
2023-03-06T11:43:52.729Z,6.65
2023-03-06T11:49:04.787Z,6.75
2023-03-06T11:54:09.569Z,6.75
2023-03-06T11:59:35.598Z,6.74
2023-03-06T12:05:01.122Z,6.74
2023-03-06T12:10:19.197Z,6.78
2023-03-06T12:15:41.799Z,6.79
2023-03-06T12:21:05.555Z,6.77
2023-03-06T12:26:38.053Z,6.59
2023-03-06T12:31:52.721Z,6.61
2023-03-06T12:37:21.538Z,6.53
2023-03-06T12:42:36.719Z,6.48
2023-03-06T12:47:44.367Z,6.54
2023-03-06T12:52:47.514Z,6.57
2023-03-06T12:57:49.530Z,6.51
2023-03-06T13:03:00.815Z,6.52
2023-03-06T13:08:24.899Z,6.49
2023-03-06T13:13:33.075Z,6.56
2023-03-06T13:18:34.646Z,6.63
2023-03-06T13:23:51.434Z,6.61
2023-03-06T13:28:55.447Z,6.58
2023-03-06T13:34:19.893Z,6.46
2023-03-06T13:39:21.436Z,6.42
2023-03-06T13:44:26.155Z,6.36
2023-03-06T13:49:29.113Z,6.34
2023-03-06T13:54:56.484Z,6.28
2023-03-06T14:00:16.819Z,6.26
2023-03-06T14:05:19.054Z,6.26
2023-03-06T14:10:24.562Z,6.31
2023-03-06T14:15:42.840Z,6.33
2023-03-06T14:21:00.164Z,6.38
2023-03-06T14:26:17.699Z,6.37
2023-03-06T14:31:29.110Z,6.38
2023-03-06T14:36:35.518Z,6.38
2023-03-06T14:41:37.670Z,6.43
2023-03-06T14:46:39.538Z,6.44
2023-03-06T14:51:43.877Z,6.43
2023-03-06T14:56:48.709Z,6.43
2023-03-06T15:01:56.199Z,6.50
2023-03-06T15:06:58.796Z,6.50
2023-03-06T15:12:07.899Z,6.48
2023-03-06T15:17:18.515Z,6.44
2023-03-06T15:22:38.006Z,6.46
2023-03-06T15:27:39.916Z,6.44
2023-03-06T15:32:42.893Z,6.42
2023-03-06T15:37:44.738Z,6.49
2023-03-06T15:42:47.015Z,6.53
2023-03-06T15:47:50.718Z,6.57
2023-03-06T15:52:53.472Z,6.55
2023-03-06T15:58:00.819Z,6.51
2023-03-06T16:03:03.349Z,6.54
2023-03-06T16:08:05.853Z,6.55
2023-03-06T16:13:12.614Z,6.52
2023-03-06T16:18:14.250Z,6.47
2023-03-06T16:23:16.411Z,6.48
2023-03-06T16:28:18.176Z,6.44
2023-03-06T16:33:19.718Z,6.40
2023-03-06T16:38:21.284Z,6.26
2023-03-06T16:43:22.774Z,6.24
2023-03-06T16:48:24.341Z,6.25
2023-03-06T16:53:26.141Z,6.24
2023-03-06T16:58:28.370Z,6.19
2023-03-06T17:03:29.844Z,6.16
2023-03-06T17:08:31.337Z,6.16
2023-03-06T17:13:32.900Z,6.12
2023-03-06T17:18:34.552Z,6.08
2023-03-06T17:23:36.969Z,6.07
2023-03-06T17:28:39.258Z,5.99
2023-03-06T17:33:40.882Z,5.88
2023-03-06T17:38:43.289Z,5.80
2023-03-06T17:43:44.799Z,5.81
2023-03-06T17:48:46.692Z,5.90
2023-03-06T17:53:49.301Z,5.90
2023-03-06T17:58:50.878Z,5.88
2023-03-06T18:03:52.680Z,5.93
2023-03-06T18:08:54.591Z,5.93
2023-03-06T18:13:56.225Z,5.93
2023-03-06T18:18:57.849Z,5.94
2023-03-06T18:23:59.486Z,5.97
2023-03-06T18:29:05.816Z,6.00
2023-03-06T18:34:10.521Z,6.04
2023-03-06T18:39:13.792Z,6.06
2023-03-06T18:44:17.368Z,6.08
2023-03-06T18:49:18.997Z,6.05
2023-03-06T18:54:20.751Z,6.06
2023-03-06T18:59:22.470Z,6.10
2023-03-06T19:04:25.599Z,6.12
2023-03-06T19:09:27.165Z,6.16
2023-03-06T19:14:28.805Z,6.18
2023-03-06T19:19:30.405Z,6.18
2023-03-06T19:24:32.481Z,6.19
2023-03-06T19:29:34.096Z,6.20
2023-03-06T19:34:35.615Z,6.20
2023-03-06T19:39:37.086Z,6.20
2023-03-06T19:44:38.635Z,6.19
2023-03-06T19:49:40.358Z,6.17
2023-03-06T19:54:42.372Z,6.16
2023-03-06T19:59:44.026Z,6.13
2023-03-06T20:04:46.667Z,6.10
2023-03-06T20:09:48.286Z,6.07
2023-03-06T20:14:49.910Z,6.06
2023-03-06T20:19:51.541Z,6.00
2023-03-06T20:24:53.284Z,5.98
2023-03-06T20:29:54.850Z,5.91
2023-03-06T20:34:56.360Z,5.89
2023-03-06T20:39:57.917Z,5.86
2023-03-06T20:44:59.447Z,5.87
2023-03-06T20:50:01.062Z,5.78
2023-03-06T20:55:02.882Z,5.75
2023-03-06T21:00:06.562Z,5.67
2023-03-06T21:05:08.638Z,5.62
2023-03-06T21:10:10.797Z,5.60
2023-03-06T21:15:12.975Z,5.57
2023-03-06T21:20:14.684Z,5.60
2023-03-06T21:25:16.453Z,5.57
2023-03-06T21:30:18.245Z,5.55
2023-03-06T21:35:20.282Z,5.54
2023-03-06T21:40:21.776Z,5.52
2023-03-06T21:45:23.362Z,5.49
2023-03-06T21:50:25.800Z,5.42
2023-03-06T21:55:27.517Z,5.36
2023-03-06T22:00:29.036Z,5.32
2023-03-06T22:05:31.867Z,5.26
2023-03-06T22:10:33.381Z,5.25
2023-03-06T22:15:34.931Z,5.22
2023-03-06T22:20:39.443Z,5.24
2023-03-06T22:25:41.183Z,5.22
2023-03-06T22:30:42.890Z,5.18
2023-03-06T22:35:44.381Z,5.10
2023-03-06T22:40:45.875Z,5.06
2023-03-06T22:45:47.392Z,5.05
2023-03-06T22:50:49.008Z,4.99
2023-03-06T22:55:50.741Z,4.97
2023-03-06T23:00:52.621Z,4.96
2023-03-06T23:05:54.231Z,4.88
2023-03-06T23:10:55.728Z,4.83
2023-03-06T23:16:15.847Z,4.82
2023-03-06T23:21:36.318Z,4.89
2023-03-06T23:26:56.338Z,4.87
2023-03-06T23:31:57.917Z,4.87
2023-03-06T23:36:59.563Z,4.88
2023-03-06T23:42:01.450Z,4.84
2023-03-06T23:47:02.957Z,4.80
2023-03-06T23:52:04.700Z,4.76
2023-03-06T23:57:06.728Z,4.70
